Terminal Aerodrome Forecast
Issued by NWS

Home | Current Version | Previous Version | Text Only | Print | Product List | Glossary On
Versions: 1 2 3 4 5 6 7 8 9 10 11 12 13 14 15 16 17 18 19 20 21 22
000
FTUS41 KBOX 010541
TAFACK
TAF
KACK 010541Z 0106/0206 05015KT P6SM SCT035 OVC080
     FM010900 04020KT P6SM -RA SCT015 OVC035
     FM011300 04023KT P6SM -RA OVC015
     FM011500 04023G31KT 3SM -RA OVC008
     FM011800 03028G37KT 2SM -RA BR OVC003
     FM020000 01032G46KT P6SM -RA OVC008
     FM020300 01034G44KT P6SM -RA OVC015=

USA.gov is the U.S. government's official web portal to all federal, state and local government web resources and services.